createdAt,value
2023-01-10T00:01:08.887Z,7.34
2023-01-10T00:04:11.601Z,7.61
2023-01-10T00:07:14.311Z,7.63
2023-01-10T00:10:17.130Z,7.71
2023-01-10T00:13:24.787Z,7.75
2023-01-10T00:16:28.815Z,7.68
2023-01-10T00:19:31.898Z,7.62
2023-01-10T00:22:34.515Z,7.52
2023-01-10T00:25:37.355Z,7.65
2023-01-10T00:28:40.120Z,7.54
2023-01-10T00:31:44.050Z,7.49
2023-01-10T00:34:46.710Z,7.79
2023-01-10T00:37:49.453Z,7.69
2023-01-10T00:40:52.161Z,7.44
2023-01-10T00:43:56.720Z,7.44
2023-01-10T00:47:00.691Z,7.48
2023-01-10T00:50:04.515Z,7.47
2023-01-10T00:53:07.206Z,7.46
2023-01-10T00:56:09.761Z,7.42
2023-01-10T00:59:12.340Z,7.45
2023-01-10T01:02:16.375Z,7.56
2023-01-10T01:05:19.859Z,7.52
2023-01-10T01:08:22.446Z,7.52
2023-01-10T01:11:25.030Z,7.71
2023-01-10T01:14:27.636Z,7.74
2023-01-10T01:17:31.563Z,7.71
2023-01-10T01:20:34.181Z,7.62
2023-01-10T01:23:37.187Z,7.52
2023-01-10T01:26:41.956Z,7.49
2023-01-10T01:29:44.560Z,7.85
2023-01-10T01:32:48.586Z,7.72
2023-01-10T01:35:51.347Z,7.61
2023-01-10T01:38:53.921Z,7.69
2023-01-10T01:42:00.235Z,7.50
2023-01-10T01:45:35.840Z,7.62
2023-01-10T01:48:42.424Z,7.41
2023-01-10T01:51:46.528Z,7.48
2023-01-10T01:54:49.430Z,7.17
2023-01-10T01:57:53.818Z,7.27
2023-01-10T02:00:58.468Z,7.36
2023-01-10T02:04:09.690Z,7.40
2023-01-10T02:07:13.698Z,7.27
2023-01-10T02:10:20.952Z,6.95
2023-01-10T02:13:26.672Z,7.07
2023-01-10T02:16:29.267Z,7.14
2023-01-10T02:19:44.217Z,7.24
2023-01-10T02:23:15.010Z,7.34
2023-01-10T02:26:59.907Z,7.36
2023-01-10T02:30:38.394Z,7.32
2023-01-10T02:33:50.438Z,7.19
2023-01-10T02:37:01.163Z,7.22
2023-01-10T02:40:09.426Z,7.05
2023-01-10T02:43:16.147Z,7.10
2023-01-10T02:46:25.027Z,7.04
2023-01-10T02:49:29.074Z,7.01
2023-01-10T02:52:32.315Z,7.03
2023-01-10T02:55:48.423Z,7.03
2023-01-10T02:59:07.386Z,7.19
2023-01-10T03:02:24.724Z,7.33
2023-01-10T03:05:41.136Z,7.26
2023-01-10T03:08:51.800Z,7.07
2023-01-10T03:12:02.503Z,7.23
2023-01-10T03:15:07.443Z,7.27
2023-01-10T03:18:14.658Z,7.16
2023-01-10T03:21:21.920Z,7.19
2023-01-10T03:24:29.719Z,7.29
2023-01-10T03:27:39.805Z,7.17
2023-01-10T03:30:47.998Z,7.12
2023-01-10T03:33:51.170Z,7.00
2023-01-10T03:37:04.066Z,7.07
2023-01-10T03:40:15.845Z,6.97
2023-01-10T03:43:40.114Z,7.24
2023-01-10T03:46:48.227Z,7.06
2023-01-10T03:49:57.436Z,7.22
2023-01-10T03:53:01.536Z,7.32
2023-01-10T03:56:04.312Z,7.10
2023-01-10T03:59:06.900Z,7.14
2023-01-10T04:02:09.509Z,7.12
2023-01-10T04:05:12.632Z,7.34
2023-01-10T04:08:16.608Z,7.30
2023-01-10T04:11:19.207Z,7.19
2023-01-10T04:14:21.790Z,7.28
2023-01-10T04:17:24.384Z,7.21
2023-01-10T04:20:27.464Z,7.32
2023-01-10T04:23:31.403Z,7.39
2023-01-10T04:26:33.999Z,7.40
2023-01-10T04:29:36.587Z,7.25
2023-01-10T04:32:39.186Z,7.21
2023-01-10T04:35:41.778Z,6.99
2023-01-10T04:38:45.747Z,7.05
2023-01-10T04:41:48.336Z,7.06
2023-01-10T04:44:50.989Z,6.77
2023-01-10T04:47:56.056Z,6.75
2023-01-10T04:50:58.656Z,6.68
2023-01-10T04:54:02.747Z,6.80
2023-01-10T04:57:06.528Z,6.86
2023-01-10T05:00:10.338Z,6.74
2023-01-10T05:03:13.003Z,6.84
2023-01-10T05:06:15.849Z,7.08
2023-01-10T05:09:19.785Z,7.21
2023-01-10T05:12:22.363Z,7.26
2023-01-10T05:15:25.443Z,7.12
2023-01-10T05:18:28.648Z,7.26
2023-01-10T05:21:31.235Z,7.34
2023-01-10T05:24:35.167Z,7.35
2023-01-10T05:27:37.761Z,7.15
2023-01-10T05:30:40.336Z,7.23
2023-01-10T05:33:45.598Z,7.21
2023-01-10T05:36:48.183Z,7.19
2023-01-10T05:39:52.116Z,7.03
2023-01-10T05:42:54.676Z,7.05
2023-01-10T05:45:57.281Z,6.91
2023-01-10T05:48:59.850Z,6.78
2023-01-10T05:52:02.428Z,6.94
2023-01-10T05:55:06.882Z,6.83
2023-01-10T05:58:11.081Z,6.62
2023-01-10T06:01:13.830Z,6.82
2023-01-10T06:04:16.557Z,6.89
2023-01-10T06:07:19.169Z,6.83
2023-01-10T06:10:23.124Z,6.64
2023-01-10T06:13:25.845Z,6.67
2023-01-10T06:16:28.443Z,6.67
2023-01-10T06:19:31.044Z,6.64
2023-01-10T06:22:33.698Z,6.76
2023-01-10T06:25:40.577Z,6.68
2023-01-10T06:28:43.325Z,6.66
2023-01-10T06:31:45.899Z,6.61
2023-01-10T06:34:48.476Z,6.49
2023-01-10T06:37:51.471Z,6.18
2023-01-10T06:40:55.469Z,6.28
2023-01-10T06:43:58.031Z,6.47
2023-01-10T06:47:00.619Z,6.62
2023-01-10T06:50:03.244Z,6.51
2023-01-10T06:53:06.308Z,6.57
2023-01-10T06:56:10.912Z,6.51
2023-01-10T06:59:13.799Z,6.68
2023-01-10T07:02:16.470Z,6.47
2023-01-10T07:05:19.088Z,6.62
2023-01-10T07:08:21.636Z,6.60
2023-01-10T07:11:25.571Z,6.46
2023-01-10T07:14:28.170Z,6.37
2023-01-10T07:17:31.176Z,6.45
2023-01-10T07:20:33.754Z,6.50
2023-01-10T07:23:36.682Z,6.38
2023-01-10T07:26:40.615Z,6.39
2023-01-10T07:29:43.211Z,6.30
2023-01-10T07:32:45.789Z,6.27
2023-01-10T07:35:48.366Z,6.21
2023-01-10T07:38:50.978Z,6.33
2023-01-10T07:41:55.310Z,6.08
2023-01-10T07:44:57.900Z,6.18
2023-01-10T07:48:01.874Z,6.00
2023-01-10T07:51:05.521Z,6.20
2023-01-10T07:54:08.092Z,5.92
2023-01-10T07:57:12.039Z,6.08
2023-01-10T08:00:18.618Z,6.15
2023-01-10T08:03:22.298Z,5.90
2023-01-10T08:06:24.969Z,6.01
2023-01-10T08:09:27.532Z,6.06
2023-01-10T08:12:31.628Z,6.28
2023-01-10T08:15:34.225Z,6.23
2023-01-10T08:18:38.524Z,6.04
2023-01-10T08:21:41.099Z,6.29
2023-01-10T08:24:43.745Z,6.33
2023-01-10T08:27:47.672Z,6.33
2023-01-10T08:30:55.315Z,5.97
2023-01-10T08:33:58.049Z,6.39
2023-01-10T08:37:00.661Z,6.32
2023-01-10T08:40:03.285Z,6.32
2023-01-10T08:43:08.908Z,6.64
2023-01-10T08:46:11.595Z,6.76
2023-01-10T08:49:14.391Z,6.74
2023-01-10T08:52:17.236Z,6.56
2023-01-10T08:55:20.544Z,6.65
2023-01-10T08:58:24.503Z,6.62
2023-01-10T09:01:27.169Z,6.70
2023-01-10T09:04:32.727Z,6.74
2023-01-10T09:07:35.542Z,6.80
2023-01-10T09:10:38.129Z,6.83
2023-01-10T09:13:42.263Z,7.05
2023-01-10T09:16:46.148Z,6.50
2023-01-10T09:19:48.780Z,6.51
2023-01-10T09:22:51.380Z,6.81
2023-01-10T09:25:55.914Z,6.73
2023-01-10T09:28:59.846Z,6.90
2023-01-10T09:32:02.475Z,6.76
2023-01-10T09:35:06.010Z,6.67
2023-01-10T09:38:11.856Z,6.68
2023-01-10T09:41:33.663Z,6.75
2023-01-10T09:44:50.436Z,6.91
2023-01-10T09:47:56.954Z,6.67
2023-01-10T09:51:17.022Z,6.81
2023-01-10T09:54:26.225Z,6.77
2023-01-10T09:57:28.830Z,6.81
2023-01-10T10:00:40.423Z,6.72
2023-01-10T10:03:51.524Z,6.60
2023-01-10T10:06:54.958Z,6.98
2023-01-10T10:09:57.721Z,6.77
2023-01-10T10:13:16.968Z,6.77
2023-01-10T10:16:43.557Z,6.90
2023-01-10T10:19:59.053Z,6.91
2023-01-10T10:23:28.182Z,6.87
2023-01-10T10:26:35.043Z,7.04
2023-01-10T10:30:09.934Z,6.98
2023-01-10T10:33:38.666Z,7.19
2023-01-10T10:36:46.772Z,7.16
2023-01-10T10:39:53.459Z,7.04
2023-01-10T10:42:58.022Z,7.13
2023-01-10T10:46:04.517Z,7.29
2023-01-10T10:49:18.867Z,7.28
2023-01-10T10:52:25.659Z,7.08
2023-01-10T10:55:31.790Z,7.10
2023-01-10T10:58:34.692Z,7.16
2023-01-10T11:01:37.387Z,7.25
2023-01-10T11:04:41.489Z,7.19
2023-01-10T11:07:44.752Z,6.94
2023-01-10T11:10:50.599Z,7.16
2023-01-10T11:13:56.710Z,7.06
2023-01-10T11:17:19.919Z,7.18
2023-01-10T11:20:24.020Z,7.09
2023-01-10T11:23:39.167Z,7.14
2023-01-10T11:26:41.856Z,7.31
2023-01-10T11:29:47.678Z,7.34
2023-01-10T11:32:54.283Z,7.04
2023-01-10T11:36:04.657Z,7.13
2023-01-10T11:39:07.234Z,7.08
2023-01-10T11:42:29.608Z,7.08
2023-01-10T11:45:34.271Z,7.16
2023-01-10T11:49:04.996Z,7.17
2023-01-10T11:52:31.380Z,7.23
2023-01-10T11:55:37.341Z,7.50
2023-01-10T11:58:42.651Z,7.22
2023-01-10T12:01:49.163Z,7.29
2023-01-10T12:04:53.787Z,7.51
2023-01-10T12:07:59.587Z,7.56
2023-01-10T12:11:05.719Z,7.31
2023-01-10T12:14:22.471Z,7.48
2023-01-10T12:17:28.327Z,7.49
2023-01-10T12:20:32.776Z,7.41
2023-01-10T12:23:41.399Z,7.26
2023-01-10T12:26:44.822Z,7.48
2023-01-10T12:29:56.482Z,7.35
2023-01-10T12:33:01.867Z,7.49
2023-01-10T12:36:14.650Z,7.47
2023-01-10T12:39:23.467Z,7.46
2023-01-10T12:42:57.445Z,7.54
2023-01-10T12:46:25.161Z,7.76
2023-01-10T12:49:36.343Z,7.84
2023-01-10T12:52:47.353Z,7.59
2023-01-10T12:55:56.483Z,7.77
2023-01-10T12:59:05.013Z,7.85
2023-01-10T13:02:16.154Z,7.73
2023-01-10T13:05:21.923Z,7.84
2023-01-10T13:08:27.615Z,7.66
2023-01-10T13:11:41.351Z,7.58
2023-01-10T13:14:51.364Z,7.86
2023-01-10T13:17:57.460Z,7.85
2023-01-10T13:21:13.186Z,7.86
2023-01-10T13:24:22.248Z,7.65
2023-01-10T13:27:30.248Z,7.53
2023-01-10T13:30:37.222Z,7.73
2023-01-10T13:33:54.251Z,7.70
2023-01-10T13:36:59.618Z,7.77
2023-01-10T13:40:04.346Z,7.68
2023-01-10T13:44:00.999Z,7.89
2023-01-10T13:47:03.599Z,7.95
2023-01-10T13:50:42.364Z,8.25
2023-01-10T13:54:06.210Z,8.41
2023-01-10T13:57:42.344Z,8.04
2023-01-10T14:01:09.997Z,8.18
2023-01-10T14:04:20.758Z,8.01
2023-01-10T14:07:28.204Z,7.73
2023-01-10T14:10:33.492Z,7.90
2023-01-10T14:13:37.567Z,7.74
2023-01-10T14:16:42.820Z,7.64
2023-01-10T14:19:47.743Z,7.72
2023-01-10T14:23:03.462Z,7.65
2023-01-10T14:26:06.560Z,7.65
2023-01-10T14:29:12.782Z,7.52
2023-01-10T14:32:28.748Z,7.51
2023-01-10T14:35:37.315Z,7.58
2023-01-10T14:38:40.579Z,7.79
2023-01-10T14:41:45.924Z,8.05
2023-01-10T14:44:55.058Z,8.06
2023-01-10T14:47:59.079Z,7.63
2023-01-10T14:51:18.304Z,7.85
2023-01-10T14:54:23.376Z,7.65
2023-01-10T14:57:26.021Z,7.69
2023-01-10T15:00:31.757Z,7.70
2023-01-10T15:03:35.878Z,7.81
2023-01-10T15:06:52.784Z,7.63
2023-01-10T15:09:57.877Z,7.49
2023-01-10T15:13:03.975Z,7.65
2023-01-10T15:16:07.791Z,7.93
2023-01-10T15:19:16.114Z,7.89
2023-01-10T15:22:32.217Z,7.59
2023-01-10T15:25:38.793Z,7.70
2023-01-10T15:28:41.661Z,7.86
2023-01-10T15:31:44.491Z,7.87
2023-01-10T15:34:52.568Z,7.78
2023-01-10T15:37:58.279Z,7.93
2023-01-10T15:41:03.151Z,7.67
2023-01-10T15:44:24.286Z,7.51
2023-01-10T15:47:38.635Z,7.75
2023-01-10T15:50:57.957Z,7.70
2023-01-10T15:54:05.846Z,7.83
2023-01-10T15:57:23.327Z,7.41
2023-01-10T16:00:26.056Z,7.58
2023-01-10T16:03:33.145Z,7.41
2023-01-10T16:06:38.297Z,7.75
2023-01-10T16:09:41.697Z,7.76
2023-01-10T16:13:02.493Z,7.86
2023-01-10T16:16:22.436Z,7.60
2023-01-10T16:19:25.226Z,7.50
2023-01-10T16:22:29.222Z,7.49
2023-01-10T16:25:34.712Z,7.45
2023-01-10T16:28:37.944Z,7.75
2023-01-10T16:31:40.642Z,7.70
2023-01-10T16:34:43.866Z,7.45
2023-01-10T16:37:48.506Z,7.51
2023-01-10T16:40:53.897Z,7.11
2023-01-10T16:43:55.537Z,7.11
2023-01-10T16:46:58.568Z,7.35
2023-01-10T16:50:01.130Z,7.47
2023-01-10T16:53:06.381Z,7.25
2023-01-10T16:56:13.686Z,7.42
2023-01-10T16:59:17.978Z,7.32
2023-01-10T17:02:21.753Z,7.18
2023-01-10T17:05:24.504Z,7.16
2023-01-10T17:08:28.436Z,7.13
2023-01-10T17:11:34.897Z,6.95
2023-01-10T17:14:38.554Z,7.29
2023-01-10T17:17:44.269Z,7.37
2023-01-10T17:20:47.058Z,7.51
2023-01-10T17:23:51.481Z,7.68
2023-01-10T17:26:54.054Z,7.58
2023-01-10T17:29:56.644Z,7.62
2023-01-10T17:32:59.353Z,7.08
2023-01-10T17:36:02.232Z,7.44
2023-01-10T17:39:06.312Z,7.19
2023-01-10T17:42:08.887Z,7.19
2023-01-10T17:45:12.193Z,7.29
2023-01-10T17:48:16.936Z,7.25
2023-01-10T17:51:19.526Z,6.62
2023-01-10T17:54:23.470Z,6.95
2023-01-10T17:57:26.089Z,7.09
2023-01-10T18:00:28.727Z,7.28
2023-01-10T18:03:31.404Z,6.95
2023-01-10T18:06:33.999Z,6.85
2023-01-10T18:09:37.947Z,7.09
2023-01-10T18:12:40.550Z,6.78
2023-01-10T18:15:44.825Z,6.62
2023-01-10T18:18:47.444Z,7.00
2023-01-10T18:21:50.000Z,7.08
2023-01-10T18:24:54.971Z,7.09
2023-01-10T18:27:57.548Z,6.84
2023-01-10T18:31:03.691Z,6.96
2023-01-10T18:34:06.289Z,6.89
2023-01-10T18:37:09.081Z,6.88
2023-01-10T18:40:14.650Z,7.04
2023-01-10T18:43:17.249Z,6.97
2023-01-10T18:46:21.947Z,6.97
2023-01-10T18:49:24.612Z,6.88
2023-01-10T18:52:27.199Z,6.84
2023-01-10T18:55:31.255Z,7.03
2023-01-10T18:58:36.052Z,7.29
2023-01-10T19:01:38.738Z,7.37
2023-01-10T19:04:41.524Z,7.12
2023-01-10T19:07:44.097Z,7.19
2023-01-10T19:11:11.961Z,7.36
2023-01-10T19:14:10.873Z,6.90
2023-01-10T19:17:13.455Z,6.80
2023-01-10T19:20:16.386Z,6.68
2023-01-10T19:23:19.258Z,7.18
2023-01-10T19:26:24.051Z,7.10
2023-01-10T19:29:26.656Z,6.99
2023-01-10T19:32:29.336Z,6.88
2023-01-10T19:35:35.906Z,7.20
2023-01-10T19:38:38.685Z,6.93
2023-01-10T19:41:43.055Z,6.80
2023-01-10T19:44:45.706Z,6.87
2023-01-10T19:47:48.979Z,7.05
2023-01-10T19:50:51.577Z,6.99
2023-01-10T19:53:54.181Z,7.13
2023-01-10T19:56:58.537Z,7.07
2023-01-10T20:00:01.202Z,7.26
2023-01-10T20:03:05.226Z,7.24
2023-01-10T20:06:09.079Z,7.25
2023-01-10T20:09:13.410Z,7.31
2023-01-10T20:12:17.331Z,7.24
2023-01-10T20:15:19.904Z,7.06
2023-01-10T20:18:22.517Z,6.97
2023-01-10T20:21:25.382Z,7.12
2023-01-10T20:24:28.463Z,6.79
2023-01-10T20:27:32.412Z,7.00
2023-01-10T20:30:36.879Z,6.58
2023-01-10T20:33:39.463Z,7.00
2023-01-10T20:36:42.051Z,7.00
2023-01-10T20:39:44.672Z,6.92
2023-01-10T20:42:51.707Z,6.83
2023-01-10T20:45:54.555Z,6.86
2023-01-10T20:49:00.778Z,7.09
2023-01-10T20:52:04.921Z,7.10
2023-01-10T20:55:08.193Z,6.72
2023-01-10T20:58:12.124Z,6.93
2023-01-10T21:01:24.818Z,6.63
2023-01-10T21:04:27.731Z,6.82
2023-01-10T21:07:30.310Z,6.54
2023-01-10T21:10:32.885Z,6.69
2023-01-10T21:13:36.827Z,6.75
2023-01-10T21:16:39.432Z,6.22
2023-01-10T21:19:42.021Z,6.49
2023-01-10T21:22:44.592Z,6.34
2023-01-10T21:25:47.478Z,6.57
2023-01-10T21:28:51.391Z,6.49
2023-01-10T21:31:54.110Z,6.40
2023-01-10T21:34:56.755Z,6.28
2023-01-10T21:37:59.541Z,6.40
2023-01-10T21:41:07.217Z,6.41
2023-01-10T21:44:11.328Z,6.50
2023-01-10T21:47:13.943Z,6.56
2023-01-10T21:50:17.120Z,6.56
2023-01-10T21:53:19.684Z,6.70
2023-01-10T21:56:22.284Z,6.63
2023-01-10T21:59:26.457Z,6.56
2023-01-10T22:02:30.633Z,6.57
2023-01-10T22:05:33.329Z,6.48
2023-01-10T22:08:35.963Z,6.49
2023-01-10T22:11:38.582Z,6.64
2023-01-10T22:14:42.519Z,6.75
2023-01-10T22:17:45.143Z,6.44
2023-01-10T22:20:47.741Z,6.46
2023-01-10T22:23:50.314Z,6.28
2023-01-10T22:26:54.496Z,6.23
2023-01-10T22:29:58.434Z,6.48
2023-01-10T22:33:01.429Z,6.03
2023-01-10T22:36:05.368Z,6.26
2023-01-10T22:39:08.439Z,6.11
2023-01-10T22:42:11.004Z,6.18
2023-01-10T22:45:15.110Z,6.44
2023-01-10T22:48:17.694Z,6.37
2023-01-10T22:51:21.878Z,6.08
2023-01-10T22:54:24.475Z,5.99
2023-01-10T22:57:28.757Z,6.19
2023-01-10T23:00:33.393Z,5.96
2023-01-10T23:03:36.201Z,5.95
2023-01-10T23:06:38.884Z,6.14
2023-01-10T23:09:41.467Z,5.84
2023-01-10T23:12:44.060Z,5.82
2023-01-10T23:15:56.079Z,5.87
2023-01-10T23:18:59.727Z,5.96
2023-01-10T23:22:02.312Z,5.77
2023-01-10T23:25:05.546Z,5.76
2023-01-10T23:28:08.135Z,5.82
2023-01-10T23:31:12.247Z,6.12
2023-01-10T23:34:14.819Z,5.98
2023-01-10T23:37:17.525Z,5.87
2023-01-10T23:40:20.360Z,5.99
2023-01-10T23:43:23.183Z,6.14
2023-01-10T23:46:27.171Z,6.23
2023-01-10T23:49:29.759Z,6.27
2023-01-10T23:52:32.341Z,6.18
2023-01-10T23:55:35.205Z,5.82
2023-01-10T23:58:37.976Z,5.89
